sensor_id;sensor_type;location;lat;lon;timestamp;pressure;altitude;pressure_sealevel;temperature;humidity
68075;BME280;54864;52.002;5.468;2023-02-07T00:00:00;103896.84;;;2.43;79.88
68075;BME280;54864;52.002;5.468;2023-02-07T00:01:06;103895.13;;;2.44;79.50
68075;BME280;54864;52.002;5.468;2023-02-07T00:02:07;103895.94;;;2.43;79.94
68075;BME280;54864;52.002;5.468;2023-02-07T00:03:09;103900.97;;;2.38;79.64
68075;BME280;54864;52.002;5.468;2023-02-07T00:04:10;103893.34;;;2.43;79.74
68075;BME280;54864;52.002;5.468;2023-02-07T00:05:12;103893.41;;;2.44;79.49
68075;BME280;54864;52.002;5.468;2023-02-07T00:06:15;103893.34;;;2.43;79.22
68075;BME280;54864;52.002;5.468;2023-02-07T00:07:18;103902.75;;;2.39;79.81
68075;BME280;54864;52.002;5.468;2023-02-07T00:08:19;103891.56;;;2.42;79.94
68075;BME280;54864;52.002;5.468;2023-02-07T00:09:21;103891.56;;;2.42;79.49
68075;BME280;54864;52.002;5.468;2023-02-07T00:10:22;103894.16;;;2.42;79.68
68075;BME280;54864;52.002;5.468;2023-02-07T00:11:23;103893.06;;;2.35;79.59
68075;BME280;54864;52.002;5.468;2023-02-07T00:12:25;103889.72;;;2.39;79.74
68075;BME280;54864;52.002;5.468;2023-02-07T00:13:26;103891.56;;;2.42;79.99
68075;BME280;54864;52.002;5.468;2023-02-07T00:14:28;103891.56;;;2.42;79.67
68075;BME280;54864;52.002;5.468;2023-02-07T00:15:29;103903.59;;;2.38;79.89
68075;BME280;54864;52.002;5.468;2023-02-07T00:16:31;103904.41;;;2.37;79.83
68075;BME280;54864;52.002;5.468;2023-02-07T00:17:31;103888.03;;;2.40;79.92
68075;BME280;54864;52.002;5.468;2023-02-07T00:18:34;103896.72;;;2.40;80.19
68075;BME280;54864;52.002;5.468;2023-02-07T00:19:35;103890.69;;;2.41;79.50
68075;BME280;54864;52.002;5.468;2023-02-07T00:20:36;103890.78;;;2.44;79.77
68075;BME280;54864;52.002;5.468;2023-02-07T00:21:37;103886.41;;;2.43;79.57
68075;BME280;54864;52.002;5.468;2023-02-07T00:22:40;103884.41;;;2.36;79.74
68075;BME280;54864;52.002;5.468;2023-02-07T00:23:41;103889.97;;;2.45;79.59
68075;BME280;54864;52.002;5.468;2023-02-07T00:24:43;103887.34;;;2.45;79.62
68075;BME280;54864;52.002;5.468;2023-02-07T00:25:44;103886.41;;;2.43;79.80
68075;BME280;54864;52.002;5.468;2023-02-07T00:26:46;103882.88;;;2.41;79.67
68075;BME280;54864;52.002;5.468;2023-02-07T00:27:48;103880.16;;;2.38;80.45
68075;BME280;54864;52.002;5.468;2023-02-07T00:28:50;103880.31;;;2.43;80.29
68075;BME280;54864;52.002;5.468;2023-02-07T00:29:51;103882.63;;;2.35;80.35
68075;BME280;54864;52.002;5.468;2023-02-07T00:31:02;103883.53;;;2.36;80.11
68075;BME280;54864;52.002;5.468;2023-02-07T00:32:04;103882.88;;;2.41;80.11
68075;BME280;54864;52.002;5.468;2023-02-07T00:33:05;103887.25;;;2.42;79.91
68075;BME280;54864;52.002;5.468;2023-02-07T00:34:06;103893.16;;;2.38;80.08
68075;BME280;54864;52.002;5.468;2023-02-07T00:35:08;103888.03;;;2.40;80.24
68075;BME280;54864;52.002;5.468;2023-02-07T00:36:11;103888.06;;;2.41;80.10
68075;BME280;54864;52.002;5.468;2023-02-07T00:37:13;103889.84;;;2.42;80.37
68075;BME280;54864;52.002;5.468;2023-02-07T00:38:15;103885.41;;;2.40;80.13
68075;BME280;54864;52.002;5.468;2023-02-07T00:39:17;103880.25;;;2.41;79.94
68075;BME280;54864;52.002;5.468;2023-02-07T00:40:18;103883.88;;;2.45;79.88
68075;BME280;54864;52.002;5.468;2023-02-07T00:41:20;103882.53;;;2.32;80.83
68075;BME280;54864;52.002;5.468;2023-02-07T00:42:20;103879.09;;;2.33;80.65
68075;BME280;54864;52.002;5.468;2023-02-07T00:43:22;103881.94;;;2.39;80.29
68075;BME280;54864;52.002;5.468;2023-02-07T00:44:23;103882.97;;;2.44;80.04
68075;BME280;54864;52.002;5.468;2023-02-07T00:45:25;103886.06;;;2.34;80.54
68075;BME280;54864;52.002;5.468;2023-02-07T00:46:26;103890.22;;;2.29;80.55
68075;BME280;54864;52.002;5.468;2023-02-07T00:47:28;103886.19;;;2.37;80.44
68075;BME280;54864;52.002;5.468;2023-02-07T00:48:30;103892.94;;;2.32;80.29
68075;BME280;54864;52.002;5.468;2023-02-07T00:49:31;103883.69;;;2.40;80.58
68075;BME280;54864;52.002;5.468;2023-02-07T00:50:33;103885.84;;;2.28;80.71
68075;BME280;54864;52.002;5.468;2023-02-07T00:51:33;103892.00;;;2.30;80.82
68075;BME280;54864;52.002;5.468;2023-02-07T00:52:35;103888.69;;;2.34;80.73
68075;BME280;54864;52.002;5.468;2023-02-07T00:53:37;103894.47;;;2.27;81.10
68075;BME280;54864;52.002;5.468;2023-02-07T00:54:39;103886.19;;;2.37;80.67
68075;BME280;54864;52.002;5.468;2023-02-07T00:55:40;103893.94;;;2.36;80.63
68075;BME280;54864;52.002;5.468;2023-02-07T00:56:42;103891.94;;;2.29;80.63
68075;BME280;54864;52.002;5.468;2023-02-07T00:57:42;103888.69;;;2.34;80.59
68075;BME280;54864;52.002;5.468;2023-02-07T00:58:44;103888.63;;;2.33;80.50
68075;BME280;54864;52.002;5.468;2023-02-07T00:59:45;103895.59;;;2.34;80.34
68075;BME280;54864;52.002;5.468;2023-02-07T01:00:47;103895.41;;;2.29;80.25
68075;BME280;54864;52.002;5.468;2023-02-07T01:01:47;103889.72;;;2.39;80.51
68075;BME280;54864;52.002;5.468;2023-02-07T01:02:49;103892.81;;;2.29;80.49
68075;BME280;54864;52.002;5.468;2023-02-07T01:03:50;103897.44;;;2.36;80.46
68075;BME280;54864;52.002;5.468;2023-02-07T01:04:52;103898.19;;;2.34;79.94
68075;BME280;54864;52.002;5.468;2023-02-07T01:05:54;103885.78;;;2.27;80.18
68075;BME280;54864;52.002;5.468;2023-02-07T01:06:54;103892.75;;;2.28;80.16
68075;BME280;54864;52.002;5.468;2023-02-07T01:07:56;103889.28;;;2.27;80.12
68075;BME280;54864;52.002;5.468;2023-02-07T01:09:00;103881.28;;;2.22;80.30
68075;BME280;54864;52.002;5.468;2023-02-07T01:10:02;103889.16;;;2.24;80.54
68075;BME280;54864;52.002;5.468;2023-02-07T01:11:05;103886.44;;;2.21;80.22
68075;BME280;54864;52.002;5.468;2023-02-07T01:12:07;103881.06;;;2.16;80.90
68075;BME280;54864;52.002;5.468;2023-02-07T01:13:08;103880.81;;;2.10;81.09
68075;BME280;54864;52.002;5.468;2023-02-07T01:14:10;103886.09;;;2.12;81.25
68075;BME280;54864;52.002;5.468;2023-02-07T01:15:11;103889.03;;;2.21;81.21
68075;BME280;54864;52.002;5.468;2023-02-07T01:16:17;103883.91;;;2.22;80.70
68075;BME280;54864;52.002;5.468;2023-02-07T01:17:18;103876.13;;;2.24;80.65
68075;BME280;54864;52.002;5.468;2023-02-07T01:18:20;103877.75;;;2.20;80.71
68075;BME280;54864;52.002;5.468;2023-02-07T01:19:21;103883.00;;;2.22;80.31
68075;BME280;54864;52.002;5.468;2023-02-07T01:20:22;103880.06;;;2.13;80.35
68075;BME280;54864;52.002;5.468;2023-02-07T01:21:24;103880.75;;;2.09;80.44
68075;BME280;54864;52.002;5.468;2023-02-07T01:22:27;103885.25;;;2.13;80.11
68075;BME280;54864;52.002;5.468;2023-02-07T01:23:27;103887.69;;;2.08;80.52
68075;BME280;54864;52.002;5.468;2023-02-07T01:24:30;103885.44;;;2.17;80.44
68075;BME280;54864;52.002;5.468;2023-02-07T01:25:31;103892.28;;;2.15;80.02
68075;BME280;54864;52.002;5.468;2023-02-07T01:26:34;103885.84;;;2.06;80.74
68075;BME280;54864;52.002;5.468;2023-02-07T01:27:35;103886.72;;;2.06;80.47
68075;BME280;54864;52.002;5.468;2023-02-07T01:28:38;103888.69;;;2.12;80.29
68075;BME280;54864;52.002;5.468;2023-02-07T01:29:39;103887.91;;;2.14;80.08
68075;BME280;54864;52.002;5.468;2023-02-07T01:30:41;103897.91;;;2.04;80.51
68075;BME280;54864;52.002;5.468;2023-02-07T01:31:42;103896.06;;;2.01;81.09
68075;BME280;54864;52.002;5.468;2023-02-07T01:32:44;103897.13;;;2.06;81.11
68075;BME280;54864;52.002;5.468;2023-02-07T01:33:45;103898.09;;;2.08;80.94
68075;BME280;54864;52.002;5.468;2023-02-07T01:34:46;103889.34;;;2.06;80.90
68075;BME280;54864;52.002;5.468;2023-02-07T01:35:47;103900.81;;;2.11;80.79
68075;BME280;54864;52.002;5.468;2023-02-07T01:36:49;103890.34;;;2.10;80.50
68075;BME280;54864;52.002;5.468;2023-02-07T01:37:50;103895.19;;;2.01;80.47
68075;BME280;54864;52.002;5.468;2023-02-07T01:38:52;103887.50;;;2.04;80.71
68075;BME280;54864;52.002;5.468;2023-02-07T01:39:55;103893.59;;;2.04;80.71
68075;BME280;54864;52.002;5.468;2023-02-07T01:40:56;103886.56;;;2.02;80.04
68075;BME280;54864;52.002;5.468;2023-02-07T01:41:57;103885.72;;;2.03;80.27
68075;BME280;54864;52.002;5.468;2023-02-07T01:42:59;103899.50;;;2.00;80.20
68075;BME280;54864;52.002;5.468;2023-02-07T01:44:02;103901.47;;;2.06;79.81
68075;BME280;54864;52.002;5.468;2023-02-07T01:45:15;103900.75;;;2.10;79.72
68075;BME280;54864;52.002;5.468;2023-02-07T01:46:19;103915.59;;;2.12;79.62
68075;BME280;54864;52.002;5.468;2023-02-07T01:47:22;103900.03;;;2.14;79.24
68075;BME280;54864;52.002;5.468;2023-02-07T01:48:27;103896.91;;;2.00;79.22
68075;BME280;54864;52.002;5.468;2023-02-07T01:49:33;103893.22;;;1.95;79.37
68075;BME280;54864;52.002;5.468;2023-02-07T01:50:36;103899.63;;;2.03;79.42
68075;BME280;54864;52.002;5.468;2023-02-07T01:51:42;103903.81;;;2.00;79.56
68075;BME280;54864;52.002;5.468;2023-02-07T01:52:44;103901.94;;;1.96;79.33
68075;BME280;54864;52.002;5.468;2023-02-07T01:53:47;103905.53;;;1.99;79.64
68075;BME280;54864;52.002;5.468;2023-02-07T01:54:51;103903.75;;;1.98;78.89
68075;BME280;54864;52.002;5.468;2023-02-07T01:55:57;103902.09;;;2.00;78.84
68075;BME280;54864;52.002;5.468;2023-02-07T01:57:07;103905.25;;;1.93;78.87
68075;BME280;54864;52.002;5.468;2023-02-07T01:58:09;103907.91;;;1.95;79.30
68075;BME280;54864;52.002;5.468;2023-02-07T01:59:10;103908.00;;;1.96;78.92
68075;BME280;54864;52.002;5.468;2023-02-07T02:00:14;103911.63;;;2.00;78.93
68075;BME280;54864;52.002;5.468;2023-02-07T02:01:21;103899.31;;;1.96;79.08
68075;BME280;54864;52.002;5.468;2023-02-07T02:02:26;103900.00;;;1.91;78.85
68075;BME280;54864;52.002;5.468;2023-02-07T02:03:27;103897.97;;;1.84;79.14
68075;BME280;54864;52.002;5.468;2023-02-07T02:04:29;103907.56;;;1.85;79.08
68075;BME280;54864;52.002;5.468;2023-02-07T02:05:31;103913.47;;;1.81;78.83
68075;BME280;54864;52.002;5.468;2023-02-07T02:06:34;103911.03;;;1.86;78.97
68075;BME280;54864;52.002;5.468;2023-02-07T02:07:35;103901.53;;;1.86;78.67
68075;BME280;54864;52.002;5.468;2023-02-07T02:08:38;103911.88;;;1.85;78.26
68075;BME280;54864;52.002;5.468;2023-02-07T02:09:39;103910.72;;;1.78;79.00
68075;BME280;54864;52.002;5.468;2023-02-07T02:10:58;103904.59;;;1.76;79.27
68075;BME280;54864;52.002;5.468;2023-02-07T02:12:12;103903.44;;;1.70;79.74
68075;BME280;54864;52.002;5.468;2023-02-07T02:13:27;103901.75;;;1.70;79.81
68075;BME280;54864;52.002;5.468;2023-02-07T02:14:51;103907.38;;;1.60;79.85
68075;BME280;54864;52.002;5.468;2023-02-07T02:16:04;103901.16;;;1.56;79.85
68075;BME280;54864;52.002;5.468;2023-02-07T02:17:14;103903.78;;;1.56;79.91
68075;BME280;54864;52.002;5.468;2023-02-07T02:18:30;103898.81;;;1.63;79.49
68075;BME280;54864;52.002;5.468;2023-02-07T02:20:00;103900.78;;;1.68;79.11
68075;BME280;54864;52.002;5.468;2023-02-07T02:21:32;103902.69;;;1.72;79.09
68075;BME280;54864;52.002;5.468;2023-02-07T02:23:07;103908.22;;;1.59;79.43
68075;BME280;54864;52.002;5.468;2023-02-07T02:26:40;103905.34;;;1.53;79.34
68075;BME280;54864;52.002;5.468;2023-02-07T02:28:01;103900.84;;;1.49;79.74
68075;BME280;54864;52.002;5.468;2023-02-07T02:29:37;103903.41;;;1.47;79.42
68075;BME280;54864;52.002;5.468;2023-02-07T02:30:59;103914.81;;;1.51;79.53
68075;BME280;54864;52.002;5.468;2023-02-07T02:32:36;103915.69;;;1.51;78.79
68075;BME280;54864;52.002;5.468;2023-02-07T02:33:46;103913.22;;;1.54;79.16
68075;BME280;54864;52.002;5.468;2023-02-07T02:34:51;103906.94;;;1.49;78.82
68075;BME280;54864;52.002;5.468;2023-02-07T02:36:02;103914.22;;;1.37;78.89
68075;BME280;54864;52.002;5.468;2023-02-07T02:37:18;103909.91;;;1.38;79.24
68075;BME280;54864;52.002;5.468;2023-02-07T02:38:27;103903.97;;;1.40;79.03
68075;BME280;54864;52.002;5.468;2023-02-07T02:39:39;103907.63;;;1.45;79.08
68075;BME280;54864;52.002;5.468;2023-02-07T02:40:48;103910.44;;;1.50;78.88
68075;BME280;54864;52.002;5.468;2023-02-07T02:41:59;103905.22;;;1.50;78.96
68075;BME280;54864;52.002;5.468;2023-02-07T02:43:08;103906.25;;;1.53;78.88
68075;BME280;54864;52.002;5.468;2023-02-07T02:44:17;103904.28;;;1.48;78.62
68075;BME280;54864;52.002;5.468;2023-02-07T02:45:29;103902.56;;;1.48;79.18
68075;BME280;54864;52.002;5.468;2023-02-07T02:46:34;103902.63;;;1.50;78.45
68075;BME280;54864;52.002;5.468;2023-02-07T02:47:42;103903.31;;;1.46;79.12
68075;BME280;54864;52.002;5.468;2023-02-07T02:48:46;103904.91;;;1.42;79.23
68075;BME280;54864;52.002;5.468;2023-02-07T02:49:47;103903.78;;;1.36;79.34
68075;BME280;54864;52.002;5.468;2023-02-07T02:50:50;103900.88;;;1.30;79.45
68075;BME280;54864;52.002;5.468;2023-02-07T02:51:52;103899.94;;;1.27;79.76
68075;BME280;54864;52.002;5.468;2023-02-07T02:52:54;103903.56;;;1.31;79.54
68075;BME280;54864;52.002;5.468;2023-02-07T02:53:57;103902.53;;;1.27;79.79
68075;BME280;54864;52.002;5.468;2023-02-07T02:54:59;103896.81;;;1.15;80.16
68075;BME280;54864;52.002;5.468;2023-02-07T02:56:23;103897.69;;;1.16;79.80
68075;BME280;54864;52.002;5.468;2023-02-07T02:57:42;103903.34;;;1.26;79.96
68075;BME280;54864;52.002;5.468;2023-02-07T02:59:10;103898.38;;;1.31;79.86
68075;BME280;54864;52.002;5.468;2023-02-07T03:00:25;103898.44;;;1.33;79.44
68075;BME280;54864;52.002;5.468;2023-02-07T03:01:36;103893.31;;;1.34;79.64
68075;BME280;54864;52.002;5.468;2023-02-07T03:02:51;103888.66;;;1.27;79.49
68075;BME280;54864;52.002;5.468;2023-02-07T03:04:08;103902.69;;;1.31;79.63
68075;BME280;54864;52.002;5.468;2023-02-07T03:05:24;103898.38;;;1.31;79.50
68075;BME280;54864;52.002;5.468;2023-02-07T03:06:43;103908.69;;;1.30;79.70
68075;BME280;54864;52.002;5.468;2023-02-07T03:07:57;103910.47;;;1.31;79.45
68075;BME280;54864;52.002;5.468;2023-02-07T03:09:08;103906.91;;;1.28;79.39
68075;BME280;54864;52.002;5.468;2023-02-07T03:10:26;103907.59;;;1.24;79.74
68075;BME280;54864;52.002;5.468;2023-02-07T03:11:30;103907.13;;;1.33;79.55
68075;BME280;54864;52.002;5.468;2023-02-07T03:12:42;103901.50;;;1.24;79.59
68075;BME280;54864;52.002;5.468;2023-02-07T03:13:55;103903.91;;;1.19;80.03
68075;BME280;54864;52.002;5.468;2023-02-07T03:15:03;103902.25;;;1.21;80.02
68075;BME280;54864;52.002;5.468;2023-02-07T03:16:10;103903.84;;;1.18;80.54
68075;BME280;54864;52.002;5.468;2023-02-07T03:17:20;103906.25;;;1.13;80.97
68075;BME280;54864;52.002;5.468;2023-02-07T03:18:28;103904.88;;;1.21;80.75
68075;BME280;54864;52.002;5.468;2023-02-07T03:19:36;103905.13;;;1.27;80.69
68075;BME280;54864;52.002;5.468;2023-02-07T03:20:42;103905.13;;;1.27;80.47
68075;BME280;54864;52.002;5.468;2023-02-07T03:21:52;103900.22;;;1.34;79.79
68075;BME280;54864;52.002;5.468;2023-02-07T03:22:56;103893.59;;;1.21;80.09
68075;BME280;54864;52.002;5.468;2023-02-07T03:24:06;103897.06;;;1.21;80.40
68075;BME280;54864;52.002;5.468;2023-02-07T03:25:09;103887.81;;;1.28;80.07
68075;BME280;54864;52.002;5.468;2023-02-07T03:26:13;103895.78;;;1.31;79.72
68075;BME280;54864;52.002;5.468;2023-02-07T03:27:16;103895.03;;;1.34;79.59
68075;BME280;54864;52.002;5.468;2023-02-07T03:28:20;103887.81;;;1.28;79.26
68075;BME280;54864;52.002;5.468;2023-02-07T03:29:22;103887.75;;;1.26;79.91
68075;BME280;54864;52.002;5.468;2023-02-07T03:30:28;103898.03;;;1.23;79.53
68075;BME280;54864;52.002;5.468;2023-02-07T03:31:32;103892.69;;;1.20;79.91
68075;BME280;54864;52.002;5.468;2023-02-07T03:32:36;103892.56;;;1.17;79.83
68075;BME280;54864;52.002;5.468;2023-02-07T03:33:40;103889.34;;;1.23;80.16
68075;BME280;54864;52.002;5.468;2023-02-07T03:34:44;103891.19;;;1.25;79.87
68075;BME280;54864;52.002;5.468;2023-02-07T03:35:54;103890.34;;;1.26;79.75
68075;BME280;54864;52.002;5.468;2023-02-07T03:37:00;103882.69;;;1.30;79.33
68075;BME280;54864;52.002;5.468;2023-02-07T03:38:04;103882.63;;;1.28;79.15
68075;BME280;54864;52.002;5.468;2023-02-07T03:39:05;103880.31;;;1.15;79.92
68075;BME280;54864;52.002;5.468;2023-02-07T03:40:10;103879.25;;;1.10;80.26
68075;BME280;54864;52.002;5.468;2023-02-07T03:41:17;103881.97;;;1.13;80.16
68075;BME280;54864;52.002;5.468;2023-02-07T03:42:25;103883.97;;;0.99;80.50
68075;BME280;54864;52.002;5.468;2023-02-07T03:43:29;103885.31;;;1.10;80.36
68075;BME280;54864;52.002;5.468;2023-02-07T03:44:33;103877.59;;;1.12;79.99
68075;BME280;54864;52.002;5.468;2023-02-07T03:45:35;103884.00;;;1.20;80.10
68075;BME280;54864;52.002;5.468;2023-02-07T03:46:38;103876.78;;;1.13;79.11
68075;BME280;54864;52.002;5.468;2023-02-07T03:47:39;103868.72;;;1.07;79.88
68075;BME280;54864;52.002;5.468;2023-02-07T03:48:42;103881.91;;;1.11;79.62
68075;BME280;54864;52.002;5.468;2023-02-07T03:49:43;103881.78;;;1.08;79.80
68075;BME280;54864;52.002;5.468;2023-02-07T03:50:44;103883.81;;;1.15;79.85
68075;BME280;54864;52.002;5.468;2023-02-07T03:51:46;103878.69;;;1.17;79.47
68075;BME280;54864;52.002;5.468;2023-02-07T03:52:49;103882.78;;;1.12;79.45
68075;BME280;54864;52.002;5.468;2023-02-07T03:53:51;103889.06;;;1.17;79.56
68075;BME280;54864;52.002;5.468;2023-02-07T03:54:51;103889.84;;;1.14;79.46
68075;BME280;54864;52.002;5.468;2023-02-07T03:55:53;103884.63;;;1.14;79.34
68075;BME280;54864;52.002;5.468;2023-02-07T03:56:54;103884.59;;;0.93;79.91
68075;BME280;54864;52.002;5.468;2023-02-07T03:57:58;103878.66;;;0.96;80.29
68075;BME280;54864;52.002;5.468;2023-02-07T03:58:59;103884.25;;;1.05;80.07
68075;BME280;54864;52.002;5.468;2023-02-07T04:00:01;103892.09;;;1.07;80.24
68075;BME280;54864;52.002;5.468;2023-02-07T04:01:04;103887.16;;;1.13;79.71
68075;BME280;54864;52.002;5.468;2023-02-07T04:02:05;103891.59;;;1.15;79.75
68075;BME280;54864;52.002;5.468;2023-02-07T04:03:06;103888.75;;;1.09;79.62
68075;BME280;54864;52.002;5.468;2023-02-07T04:04:10;103876.25;;;1.01;79.58
68075;BME280;54864;52.002;5.468;2023-02-07T04:05:11;103885.69;;;0.99;79.81
68075;BME280;54864;52.002;5.468;2023-02-07T04:06:12;103877.69;;;0.94;80.51
68075;BME280;54864;52.002;5.468;2023-02-07T04:07:13;103880.50;;;0.99;80.30
68075;BME280;54864;52.002;5.468;2023-02-07T04:08:15;103878.03;;;1.02;79.96
68075;BME280;54864;52.002;5.468;2023-02-07T04:09:16;103880.56;;;1.00;79.60
68075;BME280;54864;52.002;5.468;2023-02-07T04:10:18;103884.31;;;1.07;79.78
68075;BME280;54864;52.002;5.468;2023-02-07T04:11:19;103881.09;;;1.12;79.53
68075;BME280;54864;52.002;5.468;2023-02-07T04:12:20;103876.78;;;1.13;79.20
68075;BME280;54864;52.002;5.468;2023-02-07T04:13:21;103870.38;;;1.05;79.26
68075;BME280;54864;52.002;5.468;2023-02-07T04:14:23;103880.81;;;1.06;79.41
68075;BME280;54864;52.002;5.468;2023-02-07T04:15:24;103883.56;;;1.09;79.49
68075;BME280;54864;52.002;5.468;2023-02-07T04:16:25;103870.88;;;1.17;79.18
68075;BME280;54864;52.002;5.468;2023-02-07T04:17:26;103869.88;;;1.13;79.43
68075;BME280;54864;52.002;5.468;2023-02-07T04:18:28;103877.34;;;1.06;79.89
68075;BME280;54864;52.002;5.468;2023-02-07T04:19:30;103874.75;;;1.06;80.18
68075;BME280;54864;52.002;5.468;2023-02-07T04:20:32;103877.06;;;1.00;80.03
68075;BME280;54864;52.002;5.468;2023-02-07T04:21:33;103861.50;;;1.00;80.05
68075;BME280;54864;52.002;5.468;2023-02-07T04:22:35;103878.09;;;1.03;80.05
68075;BME280;54864;52.002;5.468;2023-02-07T04:23:35;103875.44;;;1.02;80.18
68075;BME280;54864;52.002;5.468;2023-02-07T04:24:37;103872.00;;;1.03;80.23
68075;BME280;54864;52.002;5.468;2023-02-07T04:25:38;103873.84;;;1.05;80.01
68075;BME280;54864;52.002;5.468;2023-02-07T04:26:40;103885.25;;;1.09;79.86
68075;BME280;54864;52.002;5.468;2023-02-07T04:27:41;103877.72;;;1.15;79.73
68075;BME280;54864;52.002;5.468;2023-02-07T04:28:42;103879.63;;;1.19;79.46
68075;BME280;54864;52.002;5.468;2023-02-07T04:29:43;103882.09;;;1.16;79.25
68075;BME280;54864;52.002;5.468;2023-02-07T04:30:45;103883.94;;;1.18;79.17
68075;BME280;54864;52.002;5.468;2023-02-07T04:31:46;103877.78;;;1.16;79.00
68075;BME280;54864;52.002;5.468;2023-02-07T04:32:47;103881.16;;;1.14;79.10
68075;BME280;54864;52.002;5.468;2023-02-07T04:33:48;103879.31;;;1.11;78.73
68075;BME280;54864;52.002;5.468;2023-02-07T04:34:51;103866.25;;;1.10;78.58
68075;BME280;54864;52.002;5.468;2023-02-07T04:35:55;103870.56;;;1.09;78.63
68075;BME280;54864;52.002;5.468;2023-02-07T04:36:57;103875.69;;;1.08;78.67
68075;BME280;54864;52.002;5.468;2023-02-07T04:37:59;103861.75;;;1.06;78.23
68075;BME280;54864;52.002;5.468;2023-02-07T04:39:00;103870.38;;;1.05;78.77
68075;BME280;54864;52.002;5.468;2023-02-07T04:40:02;103862.78;;;1.09;78.50
68075;BME280;54864;52.002;5.468;2023-02-07T04:41:04;103860.22;;;0.90;79.28
68075;BME280;54864;52.002;5.468;2023-02-07T04:42:06;103868.13;;;0.93;79.49
68075;BME280;54864;52.002;5.468;2023-02-07T04:43:07;103868.41;;;0.99;79.01
68075;BME280;54864;52.002;5.468;2023-02-07T04:44:09;103864.72;;;0.94;78.87
68075;BME280;54864;52.002;5.468;2023-02-07T04:45:09;103865.53;;;0.93;79.05
68075;BME280;54864;52.002;5.468;2023-02-07T04:46:11;103869.78;;;0.91;78.70
68075;BME280;54864;52.002;5.468;2023-02-07T04:47:12;103859.66;;;0.97;78.78
68075;BME280;54864;52.002;5.468;2023-02-07T04:48:13;103852.63;;;0.94;78.30
68075;BME280;54864;52.002;5.468;2023-02-07T04:49:14;103855.84;;;0.89;78.77
68075;BME280;54864;52.002;5.468;2023-02-07T04:50:18;103860.34;;;0.93;78.49
68075;BME280;54864;52.002;5.468;2023-02-07T04:51:18;103863.19;;;0.99;78.53
68075;BME280;54864;52.002;5.468;2023-02-07T04:52:22;103856.72;;;0.89;78.87
68075;BME280;54864;52.002;5.468;2023-02-07T04:53:26;103867.72;;;0.84;79.23
68075;BME280;54864;52.002;5.468;2023-02-07T04:54:28;103863.91;;;0.95;79.06
68075;BME280;54864;52.002;5.468;2023-02-07T04:55:29;103848.66;;;0.83;79.10
68075;BME280;54864;52.002;5.468;2023-02-07T04:56:31;103851.81;;;0.76;79.22
68075;BME280;54864;52.002;5.468;2023-02-07T04:57:31;103850.25;;;0.80;79.14
68075;BME280;54864;52.002;5.468;2023-02-07T04:58:33;103856.41;;;0.82;79.72
68075;BME280;54864;52.002;5.468;2023-02-07T04:59:34;103859.38;;;0.91;79.35
68075;BME280;54864;52.002;5.468;2023-02-07T05:00:35;103864.38;;;0.86;79.28
68075;BME280;54864;52.002;5.468;2023-02-07T05:01:36;103866.16;;;0.87;79.21
68075;BME280;54864;52.002;5.468;2023-02-07T05:02:38;103862.75;;;0.88;79.12
68075;BME280;54864;52.002;5.468;2023-02-07T05:03:39;103861.72;;;0.85;79.17
68075;BME280;54864;52.002;5.468;2023-02-07T05:04:40;103858.53;;;0.71;79.02
68075;BME280;54864;52.002;5.468;2023-02-07T05:05:43;103866.66;;;0.79;79.33
68075;BME280;54864;52.002;5.468;2023-02-07T05:06:45;103860.28;;;0.91;78.93
68075;BME280;54864;52.002;5.468;2023-02-07T05:07:46;103868.50;;;0.81;78.65
68075;BME280;54864;52.002;5.468;2023-02-07T05:08:48;103857.78;;;0.74;79.19
68075;BME280;54864;52.002;5.468;2023-02-07T05:09:49;103856.00;;;0.73;79.41
68075;BME280;54864;52.002;5.468;2023-02-07T05:10:52;103863.38;;;0.83;79.17
68075;BME280;54864;52.002;5.468;2023-02-07T05:11:53;103863.38;;;0.83;78.58
68075;BME280;54864;52.002;5.468;2023-02-07T05:12:54;103867.13;;;0.70;79.57
68075;BME280;54864;52.002;5.468;2023-02-07T05:13:55;103865.63;;;0.75;79.13
68075;BME280;54864;52.002;5.468;2023-02-07T05:14:57;103875.19;;;0.76;79.15
68075;BME280;54864;52.002;5.468;2023-02-07T05:16:00;103871.91;;;0.80;79.10
68075;BME280;54864;52.002;5.468;2023-02-07T05:17:02;103868.41;;;0.80;79.08
68075;BME280;54864;52.002;5.468;2023-02-07T05:18:03;103865.06;;;0.82;78.66
68075;BME280;54864;52.002;5.468;2023-02-07T05:19:05;103867.19;;;0.72;78.87
68075;BME280;54864;52.002;5.468;2023-02-07T05:20:07;103875.75;;;0.69;79.15
68075;BME280;54864;52.002;5.468;2023-02-07T05:21:10;103862.69;;;0.68;79.25
68075;BME280;54864;52.002;5.468;2023-02-07T05:22:11;103862.22;;;0.76;78.93
68075;BME280;54864;52.002;5.468;2023-02-07T05:23:13;103865.75;;;0.78;78.76
68075;BME280;54864;52.002;5.468;2023-02-07T05:24:14;103861.44;;;0.79;78.29
68075;BME280;54864;52.002;5.468;2023-02-07T05:25:16;103872.88;;;0.82;78.26
68075;BME280;54864;52.002;5.468;2023-02-07T05:26:17;103865.00;;;0.81;78.10
68075;BME280;54864;52.002;5.468;2023-02-07T05:27:18;103868.41;;;0.80;78.15
68075;BME280;54864;52.002;5.468;2023-02-07T05:28:19;103871.28;;;0.86;77.78
68075;BME280;54864;52.002;5.468;2023-02-07T05:29:21;103878.69;;;0.77;78.23
68075;BME280;54864;52.002;5.468;2023-02-07T05:30:22;103877.66;;;0.73;78.34
68075;BME280;54864;52.002;5.468;2023-02-07T05:31:23;103881.88;;;0.71;78.46
68075;BME280;54864;52.002;5.468;2023-02-07T05:32:45;103884.63;;;0.74;78.63
68075;BME280;54864;52.002;5.468;2023-02-07T05:34:04;103877.91;;;0.60;78.81
68075;BME280;54864;52.002;5.468;2023-02-07T05:35:05;103880.69;;;0.64;78.74
68075;BME280;54864;52.002;5.468;2023-02-07T05:36:09;103882.78;;;0.72;78.44
68075;BME280;54864;52.002;5.468;2023-02-07T05:37:11;103894.13;;;0.74;78.16
68075;BME280;54864;52.002;5.468;2023-02-07T05:38:14;103888.94;;;0.74;78.10
68075;BME280;54864;52.002;5.468;2023-02-07T05:39:16;103890.13;;;0.62;78.52
68075;BME280;54864;52.002;5.468;2023-02-07T05:40:17;103891.91;;;0.63;78.40
68075;BME280;54864;52.002;5.468;2023-02-07T05:41:19;103885.63;;;0.58;78.45
68075;BME280;54864;52.002;5.468;2023-02-07T05:42:19;103880.97;;;0.51;78.75